createdAt,value
2019-04-11T00:00:57.562Z,58.00
2019-04-11T00:03:27.341Z,58.70
2019-04-11T00:05:57.123Z,58.20
2019-04-11T00:08:27.952Z,58.50
2019-04-11T00:10:57.708Z,58.90
2019-04-11T00:13:29.942Z,58.80
2019-04-11T00:15:59.375Z,58.80
2019-04-11T00:18:28.995Z,58.90
2019-04-11T00:20:58.605Z,58.60
2019-04-11T00:23:28.241Z,58.50
2019-04-11T00:25:58.093Z,59.00
2019-04-11T00:28:27.896Z,59.60
2019-04-11T00:30:58.698Z,59.40
2019-04-11T00:33:28.591Z,59.20
2019-04-11T00:35:58.270Z,59.30
2019-04-11T00:38:28.019Z,59.60
2019-04-11T00:40:57.652Z,59.10
2019-04-11T00:43:34.288Z,59.00
2019-04-11T00:45:58.830Z,59.00
2019-04-11T00:48:28.587Z,59.20
2019-04-11T00:50:59.257Z,59.30
2019-04-11T00:53:29.863Z,59.50
2019-04-11T00:55:59.887Z,59.30
2019-04-11T00:58:29.753Z,59.00
2019-04-11T01:00:59.774Z,59.10
2019-04-11T01:03:30.434Z,59.40
2019-04-11T01:05:59.976Z,59.50
2019-04-11T01:08:29.595Z,59.70
2019-04-11T01:10:59.476Z,60.10
2019-04-11T01:13:39.736Z,59.90
2019-04-11T01:16:06.988Z,59.70
2019-04-11T01:18:36.747Z,59.30
2019-04-11T01:21:06.329Z,59.90
2019-04-11T01:23:35.954Z,59.50
2019-04-11T01:26:05.573Z,59.80
2019-04-11T01:28:35.190Z,59.60
2019-04-11T01:31:06.455Z,59.70
2019-04-11T01:33:36.161Z,59.60
2019-04-11T01:36:06.891Z,59.50
2019-04-11T01:38:38.718Z,59.50
2019-04-11T01:41:08.239Z,59.60
2019-04-11T01:43:37.905Z,59.70
2019-04-11T01:46:07.778Z,59.80
2019-04-11T01:48:39.621Z,59.70
2019-04-11T01:51:09.641Z,60.00
2019-04-11T01:53:40.991Z,59.70
2019-04-11T01:56:10.773Z,59.90
2019-04-11T01:58:40.640Z,59.40
2019-04-11T02:01:21.375Z,59.50
2019-04-11T02:03:52.792Z,59.60
2019-04-11T02:06:23.574Z,59.50
2019-04-11T02:08:53.473Z,59.70
2019-04-11T02:11:23.496Z,59.70
2019-04-11T02:14:05.083Z,59.20
2019-04-11T02:16:25.205Z,59.40
2019-04-11T02:18:56.073Z,59.50
2019-04-11T02:21:25.893Z,59.50
2019-04-11T02:23:57.299Z,60.00
2019-04-11T02:26:29.344Z,60.40
2019-04-11T02:28:59.371Z,60.30
2019-04-11T02:31:30.606Z,59.80
2019-04-11T02:34:02.440Z,59.80
2019-04-11T02:36:34.138Z,60.10
2019-04-11T02:39:11.761Z,60.10
2019-04-11T02:41:39.586Z,60.20
2019-04-11T02:44:28.660Z,59.90
2019-04-11T02:46:47.900Z,60.00
2019-04-11T02:49:11.614Z,60.00
2019-04-11T02:51:42.817Z,60.10
2019-04-11T02:54:15.698Z,60.10
2019-04-11T02:56:45.593Z,60.10
2019-04-11T02:59:17.688Z,60.50
2019-04-11T03:01:48.631Z,60.10
2019-04-11T03:04:20.296Z,59.80
2019-04-11T03:06:51.963Z,59.80
2019-04-11T03:09:23.725Z,59.90
2019-04-11T03:11:54.655Z,60.20
2019-04-11T03:14:25.143Z,60.20
2019-04-11T03:17:02.458Z,60.70
2019-04-11T03:19:42.420Z,60.50
2019-04-11T03:21:59.406Z,61.00
2019-04-11T03:24:31.612Z,61.00
2019-04-11T03:27:04.567Z,60.80
2019-04-11T03:29:33.821Z,61.20
2019-04-11T03:32:36.919Z,61.80
2019-04-11T03:35:20.725Z,61.60
2019-04-11T03:37:26.094Z,61.40
2019-04-11T03:39:59.241Z,61.90
2019-04-11T03:42:29.678Z,62.20
2019-04-11T03:44:47.281Z,61.90
2019-04-11T03:47:27.731Z,61.00
2019-04-11T03:49:52.110Z,61.00
2019-04-11T03:52:17.187Z,61.70
2019-04-11T03:54:49.552Z,62.30
2019-04-11T03:57:21.510Z,61.20
2019-04-11T03:59:52.055Z,60.90
2019-04-11T04:02:22.580Z,61.60
2019-04-11T04:04:54.224Z,61.50
2019-04-11T04:07:24.231Z,60.50
2019-04-11T04:09:54.516Z,61.20
2019-04-11T04:12:27.171Z,60.70
2019-04-11T04:14:59.261Z,60.60
2019-04-11T04:17:49.899Z,60.80
2019-04-11T04:20:42.035Z,61.60
2019-04-11T04:23:14.185Z,61.70
2019-04-11T04:25:47.040Z,61.70
2019-04-11T04:28:15.932Z,62.00
2019-04-11T04:30:46.987Z,61.90
2019-04-11T04:33:17.202Z,61.50
2019-04-11T04:35:49.636Z,61.80
2019-04-11T04:38:21.102Z,62.70
2019-04-11T04:41:08.869Z,62.20
2019-04-11T04:43:24.964Z,62.00
2019-04-11T04:46:13.682Z,61.20
2019-04-11T04:48:27.217Z,62.00
2019-04-11T04:51:01.668Z,62.30
2019-04-11T04:53:30.807Z,61.70
2019-04-11T04:56:02.531Z,61.30
2019-04-11T04:58:33.770Z,61.80
2019-04-11T05:01:05.758Z,62.10
2019-04-11T05:03:34.919Z,62.40
2019-04-11T05:06:04.795Z,62.50
2019-04-11T05:08:34.812Z,62.60
2019-04-11T05:11:04.768Z,62.40
2019-04-11T05:13:34.661Z,62.20
2019-04-11T05:16:15.105Z,62.30
2019-04-11T05:18:37.453Z,62.80
2019-04-11T05:21:07.234Z,62.50
2019-04-11T05:23:37.427Z,62.80
2019-04-11T05:26:08.899Z,62.60
2019-04-11T05:28:39.350Z,62.70
2019-04-11T05:31:10.181Z,62.70
2019-04-11T05:33:40.120Z,63.30
2019-04-11T05:36:10.183Z,63.10
2019-04-11T05:38:40.072Z,63.00
2019-04-11T05:41:12.209Z,63.30
2019-04-11T05:43:41.744Z,63.30
2019-04-11T05:46:26.338Z,62.60
2019-04-11T05:49:03.870Z,62.80
2019-04-11T05:51:40.953Z,63.20
2019-04-11T05:54:08.042Z,63.30
2019-04-11T05:56:38.810Z,63.70
2019-04-11T05:59:10.113Z,63.20
2019-04-11T06:01:42.526Z,63.30
2019-04-11T06:04:16.144Z,63.00
2019-04-11T06:06:50.628Z,63.80
2019-04-11T06:09:22.964Z,63.50
2019-04-11T06:11:57.985Z,63.30
2019-04-11T06:14:33.111Z,63.90
2019-04-11T06:17:05.184Z,63.50
2019-04-11T06:19:39.708Z,63.50
2019-04-11T06:22:10.830Z,63.60
2019-04-11T06:24:56.442Z,64.20
2019-04-11T06:27:28.492Z,64.60
2019-04-11T06:30:03.383Z,64.80
2019-04-11T06:32:38.380Z,64.80
2019-04-11T06:35:22.071Z,65.40
2019-04-11T06:38:10.104Z,64.70
2019-04-11T06:40:44.453Z,64.40
2019-04-11T06:43:18.679Z,63.70
2019-04-11T06:45:49.986Z,64.30
2019-04-11T06:48:27.441Z,64.80
2019-04-11T06:51:01.876Z,65.00
2019-04-11T06:53:34.109Z,64.90
2019-04-11T06:56:14.904Z,65.30
2019-04-11T06:58:46.246Z,65.00
2019-04-11T07:01:20.522Z,65.30
2019-04-11T07:03:51.875Z,65.00
2019-04-11T07:06:23.858Z,65.00
2019-04-11T07:08:58.902Z,64.50
2019-04-11T07:11:45.499Z,64.20
2019-04-11T07:14:25.398Z,64.80
2019-04-11T07:17:13.784Z,65.10
2019-04-11T07:20:04.450Z,64.60
2019-04-11T07:22:52.221Z,66.10
2019-04-11T07:25:23.566Z,65.10
2019-04-11T07:28:12.982Z,66.70
2019-04-11T07:31:00.541Z,65.60
2019-04-11T07:33:33.118Z,65.20
2019-04-11T07:36:21.166Z,65.50
2019-04-11T07:39:07.959Z,65.40
2019-04-11T07:41:41.044Z,65.00
2019-04-11T07:44:26.858Z,65.20
2019-04-11T07:47:18.818Z,65.00
2019-04-11T07:49:46.434Z,65.50
2019-04-11T07:52:17.597Z,64.60
2019-04-11T07:54:47.754Z,65.00
2019-04-11T07:57:36.207Z,65.50
2019-04-11T08:00:12.729Z,65.60
2019-04-11T08:02:53.309Z,65.10
2019-04-11T08:05:40.898Z,65.70
2019-04-11T08:08:15.428Z,65.90
2019-04-11T08:10:50.557Z,65.00
2019-04-11T08:13:38.813Z,64.10
2019-04-11T08:16:26.744Z,64.70
2019-04-11T08:19:04.176Z,65.50
2019-04-11T08:21:52.543Z,63.90
2019-04-11T08:24:40.578Z,64.40
2019-04-11T08:27:28.065Z,64.80
2019-04-11T08:30:00.363Z,65.20
2019-04-11T08:32:51.946Z,65.10
2019-04-11T08:35:36.499Z,66.10
2019-04-11T08:38:12.486Z,65.20
2019-04-11T08:40:45.065Z,64.20
2019-04-11T08:43:26.872Z,64.50
2019-04-11T08:45:58.322Z,64.20
2019-04-11T08:48:29.865Z,64.40
2019-04-11T08:51:08.210Z,63.80
2019-04-11T08:53:44.823Z,63.60
2019-04-11T08:56:16.411Z,63.70
2019-04-11T08:59:30.946Z,63.10
2019-04-11T09:02:02.696Z,64.10
2019-04-11T09:04:50.390Z,62.60
2019-04-11T09:07:29.691Z,62.10
2019-04-11T09:10:17.932Z,62.10
2019-04-11T09:12:58.565Z,62.40
2019-04-11T09:15:46.087Z,62.70
2019-04-11T09:18:17.736Z,60.90
2019-04-11T09:20:49.145Z,60.60
2019-04-11T09:23:19.761Z,61.10
2019-04-11T09:26:01.626Z,61.30
2019-04-11T09:28:34.181Z,61.10
2019-04-11T09:31:12.186Z,61.00
2019-04-11T09:33:42.398Z,60.50
2019-04-11T09:36:30.636Z,60.10
2019-04-11T09:39:19.266Z,60.90
2019-04-11T09:42:07.207Z,59.50
2019-04-11T09:44:48.907Z,59.40
2019-04-11T09:47:21.854Z,59.30
2019-04-11T09:50:09.857Z,59.00
2019-04-11T09:52:47.439Z,59.60
2019-04-11T09:55:35.320Z,59.10
2019-04-11T09:58:06.734Z,58.00
2019-04-11T10:00:45.231Z,59.00
2019-04-11T10:03:23.456Z,58.00
2019-04-11T10:05:55.219Z,58.00
2019-04-11T10:08:39.603Z,57.60
2019-04-11T10:11:13.980Z,57.80
2019-04-11T10:13:55.307Z,57.30
2019-04-11T10:16:28.255Z,56.60
2019-04-11T10:19:03.390Z,56.90
2019-04-11T10:21:35.165Z,56.90
2019-04-11T10:24:07.337Z,57.10
2019-04-11T10:26:52.031Z,57.30
2019-04-11T10:29:33.380Z,56.60
2019-04-11T10:32:04.124Z,55.40
2019-04-11T10:34:35.582Z,56.00
2019-04-11T10:37:07.539Z,55.30
2019-04-11T10:39:54.099Z,55.20
2019-04-11T10:42:24.831Z,56.30
2019-04-11T10:45:02.731Z,56.50
2019-04-11T10:47:34.238Z,55.60
2019-04-11T10:50:15.474Z,54.40
2019-04-11T10:52:48.837Z,54.40
2019-04-11T10:55:23.301Z,55.10
2019-04-11T10:58:06.866Z,54.70
2019-04-11T11:00:40.874Z,54.70
2019-04-11T11:03:22.048Z,55.50
2019-04-11T11:05:53.605Z,55.70
2019-04-11T11:08:25.670Z,55.10
2019-04-11T11:10:57.745Z,54.00
2019-04-11T11:13:43.902Z,54.00
2019-04-11T11:16:13.941Z,54.20
2019-04-11T11:19:20.674Z,54.10
2019-04-11T11:21:25.965Z,53.90
2019-04-11T11:24:05.386Z,53.50
2019-04-11T11:26:33.968Z,53.80
2019-04-11T11:29:10.412Z,53.20
2019-04-11T11:31:38.691Z,53.20
2019-04-11T11:34:15.686Z,53.40
2019-04-11T11:36:50.444Z,53.60
2019-04-11T11:39:24.761Z,53.80
2019-04-11T11:42:12.650Z,53.80
2019-04-11T11:44:44.705Z,52.40
2019-04-11T11:47:35.698Z,53.00
2019-04-11T11:50:07.426Z,53.10
2019-04-11T11:52:42.460Z,52.70
2019-04-11T11:55:19.021Z,53.30
2019-04-11T11:57:55.799Z,53.40
2019-04-11T12:00:27.204Z,53.30
2019-04-11T12:03:02.425Z,53.30
2019-04-11T12:05:36.661Z,53.60
2019-04-11T12:08:10.784Z,52.60
2019-04-11T12:10:41.663Z,52.20
2019-04-11T12:13:30.362Z,52.20
2019-04-11T12:16:07.939Z,51.80
2019-04-11T12:18:54.297Z,51.90
2019-04-11T12:21:29.722Z,51.30
2019-04-11T12:24:05.602Z,51.30
2019-04-11T12:26:33.969Z,51.30
2019-04-11T12:29:20.176Z,50.90
2019-04-11T12:31:52.311Z,51.30
2019-04-11T12:34:24.071Z,51.30
2019-04-11T12:36:54.827Z,51.50
2019-04-11T12:39:44.839Z,52.80
2019-04-11T12:42:22.045Z,53.20
2019-04-11T12:45:10.039Z,52.70
2019-04-11T12:47:40.090Z,52.60
2019-04-11T12:50:23.871Z,53.60
2019-04-11T12:52:55.200Z,52.80
2019-04-11T12:55:26.494Z,52.10
2019-04-11T12:58:12.842Z,51.70
2019-04-11T13:00:59.304Z,53.20
2019-04-11T13:03:39.521Z,53.20
2019-04-11T13:06:34.834Z,53.90
2019-04-11T13:09:15.279Z,52.40
2019-04-11T13:11:55.545Z,52.30
2019-04-11T13:14:36.148Z,51.90
2019-04-11T13:17:10.288Z,52.30
2019-04-11T13:20:04.570Z,51.80
2019-04-11T13:22:30.746Z,50.70
2019-04-11T13:25:02.364Z,51.20
2019-04-11T13:27:33.871Z,51.10
2019-04-11T13:30:24.520Z,50.90
2019-04-11T13:32:56.275Z,51.20
2019-04-11T13:35:37.313Z,52.00
2019-04-11T13:38:09.085Z,51.40
2019-04-11T13:40:46.942Z,49.60
2019-04-11T13:43:21.481Z,49.80
2019-04-11T13:45:53.803Z,49.90
2019-04-11T13:48:41.976Z,49.60
2019-04-11T13:51:14.251Z,49.80
2019-04-11T13:54:02.043Z,49.10
2019-04-11T13:56:33.367Z,48.60
2019-04-11T13:59:13.803Z,48.70
2019-04-11T14:01:51.078Z,49.00
2019-04-11T14:04:22.372Z,49.90
2019-04-11T14:06:52.530Z,48.80
2019-04-11T14:09:30.741Z,48.40
2019-04-11T14:12:04.860Z,48.90
2019-04-11T14:14:32.964Z,47.90
2019-04-11T14:17:05.561Z,47.90
2019-04-11T14:19:53.254Z,47.90
2019-04-11T14:22:28.997Z,48.60
2019-04-11T14:24:57.816Z,48.20
2019-04-11T14:27:28.874Z,48.40
2019-04-11T14:30:00.163Z,48.50
2019-04-11T14:32:31.473Z,48.40
2019-04-11T14:35:08.618Z,48.20
2019-04-11T14:37:42.932Z,48.00
2019-04-11T14:40:29.615Z,48.10
2019-04-11T14:43:03.961Z,48.70
2019-04-11T14:45:36.745Z,48.10
2019-04-11T14:48:14.563Z,48.20
2019-04-11T14:51:04.021Z,48.00
2019-04-11T14:53:39.542Z,47.10
2019-04-11T14:56:10.821Z,47.80
2019-04-11T14:58:42.462Z,48.20
2019-04-11T15:01:19.751Z,48.30
2019-04-11T15:03:51.000Z,47.60
2019-04-11T15:06:25.088Z,47.10
2019-04-11T15:08:56.440Z,47.10
2019-04-11T15:11:33.733Z,47.60
2019-04-11T15:14:17.681Z,47.10
2019-04-11T15:16:55.202Z,48.00
2019-04-11T15:19:24.959Z,49.90
2019-04-11T15:22:03.969Z,48.20
2019-04-11T15:24:37.481Z,47.40
2019-04-11T15:27:22.993Z,48.00
2019-04-11T15:29:54.142Z,48.70
2019-04-11T15:32:40.704Z,48.00
2019-04-11T15:35:10.439Z,48.10
2019-04-11T15:37:58.095Z,47.50
2019-04-11T15:40:27.864Z,48.40
2019-04-11T15:43:02.119Z,48.70
2019-04-11T15:45:33.633Z,49.60
2019-04-11T15:48:17.817Z,49.40
2019-04-11T15:51:06.981Z,49.20
2019-04-11T15:53:41.546Z,49.30
2019-04-11T15:56:29.952Z,48.40
2019-04-11T15:59:04.280Z,49.00
2019-04-11T16:01:52.100Z,50.20
2019-04-11T16:04:29.610Z,50.30
2019-04-11T16:07:13.466Z,51.40
2019-04-11T16:09:57.038Z,50.80
2019-04-11T16:12:29.391Z,49.10
2019-04-11T16:15:18.788Z,49.30
2019-04-11T16:18:06.618Z,49.60
2019-04-11T16:20:36.627Z,48.60
2019-04-11T16:23:16.891Z,49.00
2019-04-11T16:25:48.187Z,48.50
2019-04-11T16:28:20.612Z,48.70
2019-04-11T16:30:57.849Z,48.90
2019-04-11T16:33:47.150Z,48.90
2019-04-11T16:36:18.438Z,49.40
2019-04-11T16:38:50.410Z,49.70
2019-04-11T16:41:39.403Z,48.20
2019-04-11T16:44:26.980Z,48.70
2019-04-11T16:47:04.312Z,49.10
2019-04-11T16:49:34.123Z,49.50
2019-04-11T16:52:07.384Z,49.20
2019-04-11T16:54:35.211Z,49.10
2019-04-11T16:57:05.134Z,48.90
2019-04-11T16:59:35.260Z,48.70
2019-04-11T17:02:05.319Z,48.90
2019-04-11T17:04:36.274Z,49.10
2019-04-11T17:07:07.558Z,50.20
2019-04-11T17:09:38.899Z,50.80
2019-04-11T17:12:09.630Z,50.70
2019-04-11T17:14:39.395Z,50.80
2019-04-11T17:17:14.988Z,51.00
2019-04-11T17:19:40.543Z,50.90
2019-04-11T17:22:10.259Z,51.90
2019-04-11T17:24:40.012Z,51.20
2019-04-11T17:27:09.730Z,51.30
2019-04-11T17:29:39.464Z,51.50
2019-04-11T17:32:09.192Z,51.40
2019-04-11T17:34:38.903Z,51.90
2019-04-11T17:37:08.670Z,51.70
2019-04-11T17:39:38.311Z,52.10
2019-04-11T17:42:13.277Z,52.00
2019-04-11T17:44:42.344Z,52.00
2019-04-11T17:47:12.089Z,52.60
2019-04-11T17:49:41.801Z,53.20
2019-04-11T17:52:11.518Z,53.10
2019-04-11T17:54:41.239Z,53.10
2019-04-11T17:57:10.989Z,52.90
2019-04-11T17:59:40.716Z,53.30
2019-04-11T18:02:11.146Z,53.80
2019-04-11T18:04:44.063Z,54.80
2019-04-11T18:07:16.871Z,53.60
2019-04-11T18:09:44.012Z,53.70
2019-04-11T18:12:14.814Z,53.90
2019-04-11T18:14:44.536Z,53.70
2019-04-11T18:17:16.478Z,53.90
2019-04-11T18:19:45.914Z,53.60
2019-04-11T18:22:15.700Z,53.80
2019-04-11T18:24:45.409Z,54.00
2019-04-11T18:27:15.089Z,53.90
2019-04-11T18:29:44.802Z,54.10
2019-04-11T18:32:15.549Z,54.20
2019-04-11T18:34:45.286Z,54.60
2019-04-11T18:37:15.048Z,54.40
2019-04-11T18:39:44.777Z,54.60
2019-04-11T18:42:14.514Z,54.10
2019-04-11T18:44:44.339Z,54.50
2019-04-11T18:47:14.051Z,54.90
2019-04-11T18:49:43.794Z,55.00
2019-04-11T18:52:29.130Z,54.70
2019-04-11T18:54:59.039Z,55.00
2019-04-11T18:57:29.042Z,55.60
2019-04-11T18:59:58.750Z,55.80
2019-04-11T19:02:28.471Z,55.70
2019-04-11T19:04:58.216Z,55.30
2019-04-11T19:07:28.299Z,55.50
2019-04-11T19:09:58.036Z,55.50
2019-04-11T19:12:28.802Z,55.60
2019-04-11T19:14:58.517Z,55.70
2019-04-11T19:17:30.299Z,55.50
2019-04-11T19:19:59.510Z,55.40
2019-04-11T19:22:37.430Z,55.20
2019-04-11T19:25:00.634Z,55.60
2019-04-11T19:27:30.350Z,56.50
2019-04-11T19:30:00.243Z,55.50
2019-04-11T19:32:29.966Z,55.50
2019-04-11T19:34:59.697Z,55.70
2019-04-11T19:37:29.342Z,55.20
2019-04-11T19:39:59.063Z,55.20
2019-04-11T19:42:28.919Z,54.70
2019-04-11T19:44:58.636Z,55.00
2019-04-11T19:47:28.377Z,55.40
2019-04-11T19:49:58.831Z,55.40
2019-04-11T19:52:29.920Z,55.80
2019-04-11T19:55:04.665Z,55.30
2019-04-11T19:57:33.303Z,55.60
2019-04-11T20:00:05.961Z,56.40
2019-04-11T20:02:38.963Z,56.40
2019-04-11T20:05:12.138Z,55.90
2019-04-11T20:07:41.455Z,55.80
2019-04-11T20:10:11.202Z,55.50
2019-04-11T20:12:40.906Z,55.50
2019-04-11T20:15:10.547Z,55.70
2019-04-11T20:17:44.545Z,56.20
2019-04-11T20:20:11.630Z,56.20
2019-04-11T20:22:41.348Z,56.10
2019-04-11T20:25:11.099Z,56.80
2019-04-11T20:27:42.090Z,56.90
2019-04-11T20:30:11.942Z,57.40
2019-04-11T20:32:41.641Z,57.80
2019-04-11T20:35:11.362Z,57.50
2019-04-11T20:37:44.435Z,57.80
2019-04-11T20:40:17.364Z,57.90
2019-04-11T20:42:44.598Z,57.50
2019-04-11T20:45:14.407Z,58.40
2019-04-11T20:47:44.162Z,58.20
2019-04-11T20:50:13.866Z,58.20
2019-04-11T20:52:43.590Z,58.50
2019-04-11T20:55:13.342Z,58.40
2019-04-11T20:57:43.050Z,58.20
2019-04-11T21:00:13.121Z,58.70
2019-04-11T21:02:42.807Z,58.50
2019-04-11T21:05:12.521Z,59.20
2019-04-11T21:07:42.234Z,59.60
2019-04-11T21:10:11.959Z,59.70
2019-04-11T21:12:42.482Z,59.30
2019-04-11T21:15:12.186Z,59.40
2019-04-11T21:17:41.858Z,60.30
2019-04-11T21:20:11.669Z,60.10
2019-04-11T21:22:41.399Z,60.50
2019-04-11T21:25:11.391Z,61.00
2019-04-11T21:27:41.150Z,60.60
2019-04-11T21:30:11.480Z,60.20
2019-04-11T21:32:41.233Z,60.30
2019-04-11T21:35:11.338Z,60.80
2019-04-11T21:37:41.010Z,60.60
2019-04-11T21:40:10.934Z,61.10
2019-04-11T21:42:40.664Z,60.90
2019-04-11T21:45:10.482Z,61.00
2019-04-11T21:47:40.195Z,61.50
2019-04-11T21:50:10.358Z,60.90
2019-04-11T21:52:43.423Z,61.00
2019-04-11T21:55:16.040Z,61.00
2019-04-11T21:57:48.429Z,61.00
2019-04-11T22:00:26.380Z,61.10
2019-04-11T22:02:57.742Z,61.10
2019-04-11T22:05:29.209Z,61.50
2019-04-11T22:08:00.945Z,61.50
2019-04-11T22:10:30.586Z,61.50
2019-04-11T22:13:04.359Z,61.60
2019-04-11T22:15:34.118Z,61.70
2019-04-11T22:18:04.927Z,62.10
2019-04-11T22:20:34.704Z,62.40
2019-04-11T22:23:04.423Z,61.90
2019-04-11T22:25:34.169Z,62.30
2019-04-11T22:28:03.866Z,62.50
2019-04-11T22:30:33.598Z,62.70
2019-04-11T22:33:04.878Z,62.80
2019-04-11T22:35:34.594Z,62.90
2019-04-11T22:38:04.289Z,62.60
2019-04-11T22:40:33.996Z,62.90
2019-04-11T22:43:07.531Z,63.30
2019-04-11T22:45:37.671Z,63.40
2019-04-11T22:48:08.452Z,63.70
2019-04-11T22:50:40.452Z,64.30
2019-04-11T22:53:12.867Z,63.70
2019-04-11T22:55:41.246Z,63.80
2019-04-11T22:58:13.700Z,64.40
2019-04-11T23:00:45.788Z,64.50
2019-04-11T23:03:17.050Z,64.20
2019-04-11T23:05:47.525Z,64.00
2019-04-11T23:08:19.226Z,64.00
2019-04-11T23:10:48.760Z,64.50
2019-04-11T23:13:18.515Z,64.10
2019-04-11T23:15:48.251Z,64.40
2019-04-11T23:18:18.002Z,64.90
2019-04-11T23:20:47.714Z,64.90
2019-04-11T23:23:17.358Z,65.00
2019-04-11T23:25:47.238Z,64.90
2019-04-11T23:28:16.990Z,65.40
2019-04-11T23:30:49.580Z,65.10
2019-04-11T23:33:19.023Z,65.20
2019-04-11T23:35:51.189Z,65.30
2019-04-11T23:38:23.672Z,65.30
2019-04-11T23:40:52.150Z,65.50
2019-04-11T23:43:21.833Z,66.00
2019-04-11T23:45:51.835Z,65.70
2019-04-11T23:48:23.741Z,66.60
2019-04-11T23:50:55.110Z,66.00
2019-04-11T23:53:28.370Z,66.00
2019-04-11T23:55:55.633Z,66.10
2019-04-11T23:58:27.011Z,66.00
